Buckpasser — WDJ6840 — position and weather

sailwx.info

Track history (hours):
 
Tides and Currents Weather Stations Pressure Air Temp Water Temp Dewpoint Dewpoint Depression Visibility Wind Speed Wind Dir Waves Ship Positions

Buckpasser

Owner: Twilight Yacht Company LLC, Framingham, MA. More information available from US FCC via Universal Licensing System and Coast Guard Vessel Documentation Center.

Last reported at 2018-Jan-19 23:57 UTC. Time now 2018-Jan-21 15:00 UTC.
Position N 34°20' W 076°54'.

Length 37 m; draft 2 m.

Type: Pleasure craft. MMSI: 368000730.

Date/timePositionNaut miles runAvg speedWind from/ knotsBaromVisibWave heightAir tempDewpointWater temp
2018-Jan-19 23:57N 34°20' W 076°54'8 9.7
2018-Jan-19 23:05N 34°27' W 076°48'3 9.8
2018-Jan-19 22:48N 34°30' W 076°47'3 9.9
2018-Jan-19 22:31N 34°32' W 076°45'5 9.8
2018-Jan-19 22:01N 34°37' W 076°42'3 5.7
2018-Jan-19 21:31N 34°34' W 076°44'1 1.4
2018-Jan-19 21:00N 34°35' W 076°44'3 5.5
2018-Jan-19 20:31N 34°37' W 076°42'4 8.6
2018-Jan-19 20:00N 34°41' W 076°40'3 6.7
2018-Jan-19 19:31N 34°44' W 076°41'3 6.8
2018-Jan-19 19:00N 34°48' W 076°41'1 1.1
2018-Jan-19 18:30N 34°48' W 076°41'0 0.0
2018-Jan-19 17:04N 34°48' W 076°41'0 0.1
2018-Jan-19 17:00N 34°48' W 076°41'0 0.0
2018-Jan-19 16:31N 34°48' W 076°41'0 0.0
2018-Jan-19 16:00N 34°48' W 076°41'0 0.0
2018-Jan-19 15:30N 34°48' W 076°41'0 0.0
2018-Jan-19 15:01N 34°48' W 076°41'0 0.0
2018-Jan-19 14:30N 34°48' W 076°41'0 0.0
2018-Jan-19 14:00N 34°48' W 076°41'  
Track history (hours):
 
Tides and Currents Weather Stations Pressure Air Temp Water Temp Dewpoint Dewpoint Depression Visibility Wind Speed Wind Dir Waves Ship Positions

Buckpasser

Owner: Twilight Yacht Company LLC, Framingham, MA. More information available from US FCC via Universal Licensing System and Coast Guard Vessel Documentation Center.

Last reported at 2018-Jan-19 23:57 UTC. Time now 2018-Jan-21 15:00 UTC.
Position N 34°20' W 076°54'.

Length 37 m; draft 2 m.

Type: Pleasure craft. MMSI: 368000730.

Date/timePositionNaut miles runAvg speedWind from/ knotsBaromVisibWave heightAir tempDewpointWater temp
2018-Jan-19 23:57N 34°20' W 076°54'8 9.7
2018-Jan-19 23:05N 34°27' W 076°48'3 9.8
2018-Jan-19 22:48N 34°30' W 076°47'3 9.9
2018-Jan-19 22:31N 34°32' W 076°45'5 9.8
2018-Jan-19 22:01N 34°37' W 076°42'3 5.7
2018-Jan-19 21:31N 34°34' W 076°44'1 1.4
2018-Jan-19 21:00N 34°35' W 076°44'3 5.5
2018-Jan-19 20:31N 34°37' W 076°42'4 8.6
2018-Jan-19 20:00N 34°41' W 076°40'3 6.7
2018-Jan-19 19:31N 34°44' W 076°41'3 6.8
2018-Jan-19 19:00N 34°48' W 076°41'1 1.1
2018-Jan-19 18:30N 34°48' W 076°41'0 0.0
2018-Jan-19 17:04N 34°48' W 076°41'0 0.1
2018-Jan-19 17:00N 34°48' W 076°41'0 0.0
2018-Jan-19 16:31N 34°48' W 076°41'0 0.0
2018-Jan-19 16:00N 34°48' W 076°41'0 0.0
2018-Jan-19 15:30N 34°48' W 076°41'0 0.0
2018-Jan-19 15:01N 34°48' W 076°41'0 0.0
2018-Jan-19 14:30N 34°48' W 076°41'0 0.0
2018-Jan-19 14:00N 34°48' W 076°41'  

Dump ship's entire track history